sensor_id;sensor_type;location;lat;lon;timestamp;temperature;humidity
4390;DHT22;2209;48.982;8.406;2023-08-21T00:01:26;28.60;99.90
4390;DHT22;2209;48.982;8.406;2023-08-21T00:03:48;28.60;99.90
4390;DHT22;2209;48.982;8.406;2023-08-21T00:06:10;28.60;99.90
4390;DHT22;2209;48.982;8.406;2023-08-21T00:08:32;28.60;99.90
4390;DHT22;2209;48.982;8.406;2023-08-21T00:10:55;28.50;99.90
4390;DHT22;2209;48.982;8.406;2023-08-21T00:13:19;28.50;99.90
4390;DHT22;2209;48.982;8.406;2023-08-21T00:15:41;28.50;99.90
4390;DHT22;2209;48.982;8.406;2023-08-21T00:18:03;28.50;99.90
4390;DHT22;2209;48.982;8.406;2023-08-21T00:20:25;28.50;99.90
4390;DHT22;2209;48.982;8.406;2023-08-21T00:22:48;28.50;99.90
4390;DHT22;2209;48.982;8.406;2023-08-21T00:25:10;28.50;99.90
4390;DHT22;2209;48.982;8.406;2023-08-21T00:27:32;28.40;99.90
4390;DHT22;2209;48.982;8.406;2023-08-21T00:29:55;28.40;99.90
4390;DHT22;2209;48.982;8.406;2023-08-21T00:32:17;28.30;99.90
4390;DHT22;2209;48.982;8.406;2023-08-21T00:34:39;28.30;99.90
4390;DHT22;2209;48.982;8.406;2023-08-21T00:37:01;28.30;99.90
4390;DHT22;2209;48.982;8.406;2023-08-21T00:39:23;28.30;99.90
4390;DHT22;2209;48.982;8.406;2023-08-21T00:41:45;28.30;99.90
4390;DHT22;2209;48.982;8.406;2023-08-21T00:44:07;28.30;99.90
4390;DHT22;2209;48.982;8.406;2023-08-21T00:46:31;28.20;99.90
4390;DHT22;2209;48.982;8.406;2023-08-21T00:48:54;28.20;99.90
4390;DHT22;2209;48.982;8.406;2023-08-21T00:51:16;28.20;99.90
4390;DHT22;2209;48.982;8.406;2023-08-21T00:53:39;28.20;99.90
4390;DHT22;2209;48.982;8.406;2023-08-21T00:56:01;28.20;99.90
4390;DHT22;2209;48.982;8.406;2023-08-21T00:58:23;28.20;99.90
4390;DHT22;2209;48.982;8.406;2023-08-21T01:00:46;28.10;99.90
4390;DHT22;2209;48.982;8.406;2023-08-21T01:03:12;28.20;99.90
4390;DHT22;2209;48.982;8.406;2023-08-21T01:05:34;28.20;99.90
4390;DHT22;2209;48.982;8.406;2023-08-21T01:08:00;28.10;99.90
4390;DHT22;2209;48.982;8.406;2023-08-21T01:10:32;28.00;99.90
4390;DHT22;2209;48.982;8.406;2023-08-21T01:13:00;27.70;99.90
4390;DHT22;2209;48.982;8.406;2023-08-21T01:15:24;27.50;99.90
4390;DHT22;2209;48.982;8.406;2023-08-21T01:17:47;27.30;99.90
4390;DHT22;2209;48.982;8.406;2023-08-21T01:20:12;27.30;99.90
4390;DHT22;2209;48.982;8.406;2023-08-21T01:22:36;27.30;99.90
4390;DHT22;2209;48.982;8.406;2023-08-21T01:24:59;27.30;99.90
4390;DHT22;2209;48.982;8.406;2023-08-21T01:27:22;27.40;99.90
4390;DHT22;2209;48.982;8.406;2023-08-21T01:29:44;27.50;99.90
4390;DHT22;2209;48.982;8.406;2023-08-21T01:32:09;27.60;99.90
4390;DHT22;2209;48.982;8.406;2023-08-21T01:34:33;27.70;99.90
4390;DHT22;2209;48.982;8.406;2023-08-21T01:36:56;27.70;99.90
4390;DHT22;2209;48.982;8.406;2023-08-21T01:39:18;27.70;99.90
4390;DHT22;2209;48.982;8.406;2023-08-21T01:41:42;27.80;99.90
4390;DHT22;2209;48.982;8.406;2023-08-21T01:44:04;27.80;99.90
4390;DHT22;2209;48.982;8.406;2023-08-21T01:46:26;27.80;99.90
4390;DHT22;2209;48.982;8.406;2023-08-21T01:48:49;27.80;99.90
4390;DHT22;2209;48.982;8.406;2023-08-21T01:51:11;27.80;99.90
4390;DHT22;2209;48.982;8.406;2023-08-21T01:53:33;27.70;99.90
4390;DHT22;2209;48.982;8.406;2023-08-21T01:55:55;27.70;99.90
4390;DHT22;2209;48.982;8.406;2023-08-21T01:58:18;27.70;99.90
4390;DHT22;2209;48.982;8.406;2023-08-21T02:00:40;27.70;99.90
4390;DHT22;2209;48.982;8.406;2023-08-21T02:03:03;27.70;99.90
4390;DHT22;2209;48.982;8.406;2023-08-21T02:05:25;27.70;99.90
4390;DHT22;2209;48.982;8.406;2023-08-21T02:07:47;27.70;99.90
4390;DHT22;2209;48.982;8.406;2023-08-21T02:10:10;27.70;99.90
4390;DHT22;2209;48.982;8.406;2023-08-21T02:12:32;27.60;99.90
4390;DHT22;2209;48.982;8.406;2023-08-21T02:14:55;27.70;99.90
4390;DHT22;2209;48.982;8.406;2023-08-21T02:17:18;27.70;99.90
4390;DHT22;2209;48.982;8.406;2023-08-21T02:19:40;27.70;99.90
4390;DHT22;2209;48.982;8.406;2023-08-21T02:22:02;27.70;99.90
4390;DHT22;2209;48.982;8.406;2023-08-21T02:24:24;27.70;99.90
4390;DHT22;2209;48.982;8.406;2023-08-21T02:26:46;27.70;99.90
4390;DHT22;2209;48.982;8.406;2023-08-21T02:29:08;27.60;99.90
4390;DHT22;2209;48.982;8.406;2023-08-21T02:31:31;27.60;99.90
4390;DHT22;2209;48.982;8.406;2023-08-21T02:33:53;27.60;99.90
4390;DHT22;2209;48.982;8.406;2023-08-21T02:36:15;27.60;99.90
4390;DHT22;2209;48.982;8.406;2023-08-21T02:38:38;27.60;99.90
4390;DHT22;2209;48.982;8.406;2023-08-21T02:41:00;27.60;99.90
4390;DHT22;2209;48.982;8.406;2023-08-21T02:43:22;27.60;99.90
4390;DHT22;2209;48.982;8.406;2023-08-21T02:45:44;27.60;99.90
4390;DHT22;2209;48.982;8.406;2023-08-21T02:48:07;27.60;99.90
4390;DHT22;2209;48.982;8.406;2023-08-21T02:50:29;27.50;99.90
4390;DHT22;2209;48.982;8.406;2023-08-21T02:52:51;27.50;99.90
4390;DHT22;2209;48.982;8.406;2023-08-21T02:55:13;27.50;99.90
4390;DHT22;2209;48.982;8.406;2023-08-21T02:57:36;27.50;99.90
4390;DHT22;2209;48.982;8.406;2023-08-21T02:59:58;27.50;99.90
4390;DHT22;2209;48.982;8.406;2023-08-21T03:02:20;27.50;99.90
4390;DHT22;2209;48.982;8.406;2023-08-21T03:04:44;27.40;99.90
4390;DHT22;2209;48.982;8.406;2023-08-21T03:07:06;27.40;99.90
4390;DHT22;2209;48.982;8.406;2023-08-21T03:09:28;27.40;99.90
4390;DHT22;2209;48.982;8.406;2023-08-21T03:11:50;27.40;99.90
4390;DHT22;2209;48.982;8.406;2023-08-21T03:14:12;27.40;99.90
4390;DHT22;2209;48.982;8.406;2023-08-21T03:16:34;27.40;99.90
4390;DHT22;2209;48.982;8.406;2023-08-21T03:18:58;27.30;99.90
4390;DHT22;2209;48.982;8.406;2023-08-21T03:21:21;27.30;99.90
4390;DHT22;2209;48.982;8.406;2023-08-21T03:23:44;27.30;99.90
4390;DHT22;2209;48.982;8.406;2023-08-21T03:26:06;27.30;99.90
4390;DHT22;2209;48.982;8.406;2023-08-21T03:28:28;27.30;99.90
4390;DHT22;2209;48.982;8.406;2023-08-21T03:30:52;27.30;99.90
4390;DHT22;2209;48.982;8.406;2023-08-21T03:33:14;27.30;99.90
4390;DHT22;2209;48.982;8.406;2023-08-21T03:35:36;27.20;99.90
4390;DHT22;2209;48.982;8.406;2023-08-21T03:38:00;27.20;99.90
4390;DHT22;2209;48.982;8.406;2023-08-21T03:40:22;27.20;99.90
4390;DHT22;2209;48.982;8.406;2023-08-21T03:42:44;27.20;99.90
4390;DHT22;2209;48.982;8.406;2023-08-21T03:45:07;27.20;99.90
4390;DHT22;2209;48.982;8.406;2023-08-21T03:47:29;27.20;99.90
4390;DHT22;2209;48.982;8.406;2023-08-21T03:49:51;27.20;99.90
4390;DHT22;2209;48.982;8.406;2023-08-21T03:52:13;27.10;99.90
4390;DHT22;2209;48.982;8.406;2023-08-21T03:54:37;27.10;99.90
4390;DHT22;2209;48.982;8.406;2023-08-21T03:56:59;27.10;99.90
4390;DHT22;2209;48.982;8.406;2023-08-21T03:59:21;27.10;99.90
4390;DHT22;2209;48.982;8.406;2023-08-21T04:01:44;27.10;99.90
4390;DHT22;2209;48.982;8.406;2023-08-21T04:04:06;27.00;99.90
4390;DHT22;2209;48.982;8.406;2023-08-21T04:06:28;27.00;99.90
4390;DHT22;2209;48.982;8.406;2023-08-21T04:08:50;27.00;99.90
4390;DHT22;2209;48.982;8.406;2023-08-21T04:11:14;27.00;99.90
4390;DHT22;2209;48.982;8.406;2023-08-21T04:13:36;27.00;99.90
4390;DHT22;2209;48.982;8.406;2023-08-21T04:15:58;27.00;99.90
4390;DHT22;2209;48.982;8.406;2023-08-21T04:18:20;27.00;99.90
4390;DHT22;2209;48.982;8.406;2023-08-21T04:20:43;27.00;99.90
4390;DHT22;2209;48.982;8.406;2023-08-21T04:23:05;26.90;99.90
4390;DHT22;2209;48.982;8.406;2023-08-21T04:25:27;26.90;99.90
4390;DHT22;2209;48.982;8.406;2023-08-21T04:27:50;26.90;99.90
4390;DHT22;2209;48.982;8.406;2023-08-21T04:30:12;26.90;99.90
4390;DHT22;2209;48.982;8.406;2023-08-21T04:32:35;26.90;99.90
4390;DHT22;2209;48.982;8.406;2023-08-21T04:34:57;26.90;99.90
4390;DHT22;2209;48.982;8.406;2023-08-21T04:37:19;26.80;99.90
4390;DHT22;2209;48.982;8.406;2023-08-21T04:39:41;26.80;99.90
4390;DHT22;2209;48.982;8.406;2023-08-21T04:42:04;26.80;99.90
4390;DHT22;2209;48.982;8.406;2023-08-21T04:44:27;26.80;99.90
4390;DHT22;2209;48.982;8.406;2023-08-21T04:46:49;26.70;99.90
4390;DHT22;2209;48.982;8.406;2023-08-21T04:49:12;26.70;99.90
4390;DHT22;2209;48.982;8.406;2023-08-21T04:51:34;26.60;99.90
4390;DHT22;2209;48.982;8.406;2023-08-21T04:53:56;26.50;99.90
4390;DHT22;2209;48.982;8.406;2023-08-21T04:56:20;26.30;99.90
4390;DHT22;2209;48.982;8.406;2023-08-21T04:58:42;26.10;99.90
4390;DHT22;2209;48.982;8.406;2023-08-21T05:01:05;25.90;99.90
4390;DHT22;2209;48.982;8.406;2023-08-21T05:03:28;25.70;99.90
4390;DHT22;2209;48.982;8.406;2023-08-21T05:05:53;25.70;99.90
4390;DHT22;2209;48.982;8.406;2023-08-21T05:08:15;25.70;99.90
4390;DHT22;2209;48.982;8.406;2023-08-21T05:10:37;25.80;99.90
4390;DHT22;2209;48.982;8.406;2023-08-21T05:12:59;25.90;99.90
4390;DHT22;2209;48.982;8.406;2023-08-21T05:15:21;26.00;99.90
4390;DHT22;2209;48.982;8.406;2023-08-21T05:17:44;26.10;99.90
4390;DHT22;2209;48.982;8.406;2023-08-21T05:20:07;26.20;99.90
4390;DHT22;2209;48.982;8.406;2023-08-21T05:22:30;26.30;99.90
4390;DHT22;2209;48.982;8.406;2023-08-21T05:24:52;26.20;99.90
4390;DHT22;2209;48.982;8.406;2023-08-21T05:27:15;26.30;99.90
4390;DHT22;2209;48.982;8.406;2023-08-21T05:29:37;26.30;99.90
4390;DHT22;2209;48.982;8.406;2023-08-21T05:31:59;26.40;99.90
4390;DHT22;2209;48.982;8.406;2023-08-21T05:34:22;26.40;99.90
4390;DHT22;2209;48.982;8.406;2023-08-21T05:36:46;26.40;99.90
4390;DHT22;2209;48.982;8.406;2023-08-21T05:39:08;26.50;99.90
4390;DHT22;2209;48.982;8.406;2023-08-21T05:41:30;26.50;99.90
4390;DHT22;2209;48.982;8.406;2023-08-21T05:43:52;26.50;99.90
4390;DHT22;2209;48.982;8.406;2023-08-21T05:46:14;26.60;99.90
4390;DHT22;2209;48.982;8.406;2023-08-21T05:48:36;26.60;99.90
4390;DHT22;2209;48.982;8.406;2023-08-21T05:51:00;26.60;99.90
4390;DHT22;2209;48.982;8.406;2023-08-21T05:53:22;26.50;99.90
4390;DHT22;2209;48.982;8.406;2023-08-21T05:55:44;26.50;99.90
4390;DHT22;2209;48.982;8.406;2023-08-21T05:58:06;26.40;99.90
4390;DHT22;2209;48.982;8.406;2023-08-21T06:00:28;26.30;99.90
4390;DHT22;2209;48.982;8.406;2023-08-21T06:02:50;26.30;99.90
4390;DHT22;2209;48.982;8.406;2023-08-21T06:05:12;26.30;99.90
4390;DHT22;2209;48.982;8.406;2023-08-21T06:07:36;26.40;99.90
4390;DHT22;2209;48.982;8.406;2023-08-21T06:09:58;26.30;99.90
4390;DHT22;2209;48.982;8.406;2023-08-21T06:12:20;26.30;99.90
4390;DHT22;2209;48.982;8.406;2023-08-21T06:14:42;26.30;99.90
4390;DHT22;2209;48.982;8.406;2023-08-21T06:17:04;26.30;99.90
4390;DHT22;2209;48.982;8.406;2023-08-21T06:19:27;26.30;99.90
4390;DHT22;2209;48.982;8.406;2023-08-21T06:21:49;26.40;99.90
4390;DHT22;2209;48.982;8.406;2023-08-21T06:24:11;26.40;99.90
4390;DHT22;2209;48.982;8.406;2023-08-21T06:26:33;26.40;99.90
4390;DHT22;2209;48.982;8.406;2023-08-21T06:28:55;26.40;99.90
4390;DHT22;2209;48.982;8.406;2023-08-21T06:31:18;26.40;99.90
4390;DHT22;2209;48.982;8.406;2023-08-21T06:33:40;26.40;99.90
4390;DHT22;2209;48.982;8.406;2023-08-21T06:36:02;26.40;99.90
4390;DHT22;2209;48.982;8.406;2023-08-21T06:38:24;26.40;99.90
4390;DHT22;2209;48.982;8.406;2023-08-21T06:40:47;26.40;99.90
4390;DHT22;2209;48.982;8.406;2023-08-21T06:43:09;26.30;99.90
4390;DHT22;2209;48.982;8.406;2023-08-21T06:45:31;26.30;99.90
4390;DHT22;2209;48.982;8.406;2023-08-21T06:47:53;26.30;99.90
4390;DHT22;2209;48.982;8.406;2023-08-21T06:50:15;26.30;99.90
4390;DHT22;2209;48.982;8.406;2023-08-21T06:52:38;26.30;99.90
4390;DHT22;2209;48.982;8.406;2023-08-21T06:55:00;26.20;99.90
4390;DHT22;2209;48.982;8.406;2023-08-21T06:57:23;26.10;99.90
4390;DHT22;2209;48.982;8.406;2023-08-21T06:59:45;26.10;99.90
4390;DHT22;2209;48.982;8.406;2023-08-21T07:02:07;26.10;99.90
4390;DHT22;2209;48.982;8.406;2023-08-21T07:04:29;25.90;99.90
4390;DHT22;2209;48.982;8.406;2023-08-21T07:06:53;25.90;99.90
4390;DHT22;2209;48.982;8.406;2023-08-21T07:09:15;25.90;99.90
4390;DHT22;2209;48.982;8.406;2023-08-21T07:11:37;25.90;99.90
4390;DHT22;2209;48.982;8.406;2023-08-21T07:14:01;26.00;99.90
4390;DHT22;2209;48.982;8.406;2023-08-21T07:16:23;26.00;99.90
4390;DHT22;2209;48.982;8.406;2023-08-21T07:18:47;26.10;99.90
4390;DHT22;2209;48.982;8.406;2023-08-21T07:21:09;26.10;99.90
4390;DHT22;2209;48.982;8.406;2023-08-21T07:23:31;26.20;99.90
4390;DHT22;2209;48.982;8.406;2023-08-21T07:25:53;26.20;99.90
4390;DHT22;2209;48.982;8.406;2023-08-21T07:28:15;26.30;99.90
4390;DHT22;2209;48.982;8.406;2023-08-21T07:30:39;26.30;99.90
4390;DHT22;2209;48.982;8.406;2023-08-21T07:33:02;26.30;99.90
4390;DHT22;2209;48.982;8.406;2023-08-21T07:35:24;26.40;99.90
4390;DHT22;2209;48.982;8.406;2023-08-21T07:37:46;26.40;99.90
4390;DHT22;2209;48.982;8.406;2023-08-21T07:40:07;26.30;99.90
4390;DHT22;2209;48.982;8.406;2023-08-21T07:42:30;26.30;99.90
4390;DHT22;2209;48.982;8.406;2023-08-21T07:44:52;26.20;99.90
4390;DHT22;2209;48.982;8.406;2023-08-21T07:47:15;26.20;99.90
4390;DHT22;2209;48.982;8.406;2023-08-21T07:49:37;26.20;99.90
4390;DHT22;2209;48.982;8.406;2023-08-21T07:51:59;26.20;99.90
4390;DHT22;2209;48.982;8.406;2023-08-21T07:54:21;26.30;99.90
4390;DHT22;2209;48.982;8.406;2023-08-21T07:56:44;26.30;99.90
4390;DHT22;2209;48.982;8.406;2023-08-21T07:59:06;26.30;99.90
4390;DHT22;2209;48.982;8.406;2023-08-21T08:01:28;26.40;99.90
4390;DHT22;2209;48.982;8.406;2023-08-21T08:03:52;26.40;99.90
4390;DHT22;2209;48.982;8.406;2023-08-21T08:06:14;26.40;99.90
4390;DHT22;2209;48.982;8.406;2023-08-21T08:08:36;26.40;99.90
4390;DHT22;2209;48.982;8.406;2023-08-21T08:11:01;26.50;99.90
4390;DHT22;2209;48.982;8.406;2023-08-21T08:13:24;26.50;99.90
4390;DHT22;2209;48.982;8.406;2023-08-21T08:15:46;26.50;99.90
4390;DHT22;2209;48.982;8.406;2023-08-21T08:18:11;26.50;99.90
4390;DHT22;2209;48.982;8.406;2023-08-21T08:20:35;26.50;99.90
4390;DHT22;2209;48.982;8.406;2023-08-21T08:22:57;26.50;99.90
4390;DHT22;2209;48.982;8.406;2023-08-21T08:25:19;26.50;99.90
4390;DHT22;2209;48.982;8.406;2023-08-21T08:27:41;26.50;99.90
4390;DHT22;2209;48.982;8.406;2023-08-21T08:30:04;26.50;99.90
4390;DHT22;2209;48.982;8.406;2023-08-21T08:32:26;26.50;99.90
4390;DHT22;2209;48.982;8.406;2023-08-21T08:34:48;26.50;99.90
4390;DHT22;2209;48.982;8.406;2023-08-21T08:37:12;26.50;99.90
4390;DHT22;2209;48.982;8.406;2023-08-21T08:39:34;26.50;99.90
4390;DHT22;2209;48.982;8.406;2023-08-21T08:41:58;26.60;99.90
4390;DHT22;2209;48.982;8.406;2023-08-21T08:44:23;26.50;99.90
4390;DHT22;2209;48.982;8.406;2023-08-21T08:46:45;26.50;99.90
4390;DHT22;2209;48.982;8.406;2023-08-21T08:49:07;26.60;99.90
4390;DHT22;2209;48.982;8.406;2023-08-21T08:51:30;26.60;99.90
4390;DHT22;2209;48.982;8.406;2023-08-21T08:53:55;26.60;99.90
4390;DHT22;2209;48.982;8.406;2023-08-21T08:56:19;26.60;99.90
4390;DHT22;2209;48.982;8.406;2023-08-21T08:58:41;26.70;99.90
4390;DHT22;2209;48.982;8.406;2023-08-21T09:01:04;26.70;99.90
4390;DHT22;2209;48.982;8.406;2023-08-21T09:03:27;26.70;99.90
4390;DHT22;2209;48.982;8.406;2023-08-21T09:05:49;26.60;99.90
4390;DHT22;2209;48.982;8.406;2023-08-21T09:08:12;26.70;99.90
4390;DHT22;2209;48.982;8.406;2023-08-21T09:10:36;26.60;99.90
4390;DHT22;2209;48.982;8.406;2023-08-21T09:12:58;26.60;99.90
4390;DHT22;2209;48.982;8.406;2023-08-21T09:15:27;26.60;99.90
4390;DHT22;2209;48.982;8.406;2023-08-21T09:17:53;26.60;99.90
4390;DHT22;2209;48.982;8.406;2023-08-21T09:20:15;26.60;99.90
4390;DHT22;2209;48.982;8.406;2023-08-21T09:22:38;26.60;99.90
4390;DHT22;2209;48.982;8.406;2023-08-21T09:25:01;26.60;99.90
4390;DHT22;2209;48.982;8.406;2023-08-21T09:27:28;26.70;99.90
4390;DHT22;2209;48.982;8.406;2023-08-21T09:29:50;26.70;99.90
4390;DHT22;2209;48.982;8.406;2023-08-21T09:32:12;26.70;99.90
4390;DHT22;2209;48.982;8.406;2023-08-21T09:34:37;26.70;99.90
4390;DHT22;2209;48.982;8.406;2023-08-21T09:36:59;26.70;99.90
4390;DHT22;2209;48.982;8.406;2023-08-21T09:39:21;26.70;99.90
4390;DHT22;2209;48.982;8.406;2023-08-21T09:41:55;26.80;99.90
4390;DHT22;2209;48.982;8.406;2023-08-21T09:44:18;26.80;99.90
4390;DHT22;2209;48.982;8.406;2023-08-21T09:46:41;26.80;99.90
4390;DHT22;2209;48.982;8.406;2023-08-21T09:49:03;26.80;99.90
4390;DHT22;2209;48.982;8.406;2023-08-21T09:51:26;26.80;99.90
4390;DHT22;2209;48.982;8.406;2023-08-21T09:53:49;26.80;99.90
4390;DHT22;2209;48.982;8.406;2023-08-21T09:56:12;26.90;99.90
4390;DHT22;2209;48.982;8.406;2023-08-21T09:58:35;26.80;99.90
4390;DHT22;2209;48.982;8.406;2023-08-21T10:00:59;26.90;99.90
4390;DHT22;2209;48.982;8.406;2023-08-21T10:03:24;26.90;99.90
4390;DHT22;2209;48.982;8.406;2023-08-21T10:05:48;26.90;99.90
4390;DHT22;2209;48.982;8.406;2023-08-21T10:08:10;26.90;99.90
4390;DHT22;2209;48.982;8.406;2023-08-21T10:10:35;26.90;99.90
4390;DHT22;2209;48.982;8.406;2023-08-21T10:12:57;26.90;99.90
4390;DHT22;2209;48.982;8.406;2023-08-21T10:15:20;26.90;99.90
4390;DHT22;2209;48.982;8.406;2023-08-21T10:17:44;26.90;99.90
4390;DHT22;2209;48.982;8.406;2023-08-21T10:20:07;27.00;99.90
4390;DHT22;2209;48.982;8.406;2023-08-21T10:22:39;27.00;99.90
4390;DHT22;2209;48.982;8.406;2023-08-21T10:25:01;27.00;99.90
4390;DHT22;2209;48.982;8.406;2023-08-21T10:27:29;27.00;99.90
4390;DHT22;2209;48.982;8.406;2023-08-21T10:29:56;27.00;99.90
4390;DHT22;2209;48.982;8.406;2023-08-21T10:32:22;27.00;99.90
4390;DHT22;2209;48.982;8.406;2023-08-21T10:34:51;27.00;99.90
4390;DHT22;2209;48.982;8.406;2023-08-21T10:37:13;27.10;99.90
4390;DHT22;2209;48.982;8.406;2023-08-21T10:39:36;27.10;99.90
4390;DHT22;2209;48.982;8.406;2023-08-21T10:42:01;27.10;99.90
4390;DHT22;2209;48.982;8.406;2023-08-21T10:44:52;27.30;99.90
4390;DHT22;2209;48.982;8.406;2023-08-21T10:47:17;27.40;99.90
4390;DHT22;2209;48.982;8.406;2023-08-21T10:49:49;27.30;99.90
4390;DHT22;2209;48.982;8.406;2023-08-21T10:52:12;27.30;99.90
4390;DHT22;2209;48.982;8.406;2023-08-21T10:54:43;27.30;99.90
4390;DHT22;2209;48.982;8.406;2023-08-21T10:57:07;27.30;99.90
4390;DHT22;2209;48.982;8.406;2023-08-21T10:59:29;27.30;99.90
4390;DHT22;2209;48.982;8.406;2023-08-21T11:01:51;27.30;99.90
4390;DHT22;2209;48.982;8.406;2023-08-21T11:04:14;27.30;99.90
4390;DHT22;2209;48.982;8.406;2023-08-21T11:06:37;27.30;99.90
4390;DHT22;2209;48.982;8.406;2023-08-21T11:08:59;27.40;99.90
4390;DHT22;2209;48.982;8.406;2023-08-21T11:11:21;27.40;99.90
4390;DHT22;2209;48.982;8.406;2023-08-21T11:13:52;27.40;99.90
4390;DHT22;2209;48.982;8.406;2023-08-21T11:16:14;27.40;99.90
4390;DHT22;2209;48.982;8.406;2023-08-21T11:18:37;27.40;99.90
4390;DHT22;2209;48.982;8.406;2023-08-21T11:21:04;27.50;99.90
4390;DHT22;2209;48.982;8.406;2023-08-21T11:23:32;27.40;99.90
4390;DHT22;2209;48.982;8.406;2023-08-21T11:25:54;27.50;99.90
4390;DHT22;2209;48.982;8.406;2023-08-21T11:28:16;27.50;99.90
4390;DHT22;2209;48.982;8.406;2023-08-21T11:30:38;27.50;99.90
4390;DHT22;2209;48.982;8.406;2023-08-21T11:33:07;27.50;99.90
4390;DHT22;2209;48.982;8.406;2023-08-21T11:35:30;27.50;99.90
4390;DHT22;2209;48.982;8.406;2023-08-21T11:37:52;27.50;99.90
4390;DHT22;2209;48.982;8.406;2023-08-21T11:40:15;27.60;99.90
4390;DHT22;2209;48.982;8.406;2023-08-21T11:42:37;27.80;99.90
4390;DHT22;2209;48.982;8.406;2023-08-21T11:45:00;27.90;99.90
4390;DHT22;2209;48.982;8.406;2023-08-21T11:47:23;27.90;99.90
4390;DHT22;2209;48.982;8.406;2023-08-21T11:49:46;27.90;99.90
4390;DHT22;2209;48.982;8.406;2023-08-21T11:52:10;27.90;99.90
4390;DHT22;2209;48.982;8.406;2023-08-21T11:54:33;28.00;99.90
4390;DHT22;2209;48.982;8.406;2023-08-21T11:56:58;27.90;99.90
4390;DHT22;2209;48.982;8.406;2023-08-21T11:59:23;27.90;99.90
4390;DHT22;2209;48.982;8.406;2023-08-21T12:01:50;27.90;99.90
4390;DHT22;2209;48.982;8.406;2023-08-21T12:04:15;28.00;99.90
4390;DHT22;2209;48.982;8.406;2023-08-21T12:06:43;28.00;99.90
4390;DHT22;2209;48.982;8.406;2023-08-21T12:09:05;28.10;99.90
4390;DHT22;2209;48.982;8.406;2023-08-21T12:11:27;28.10;99.90
4390;DHT22;2209;48.982;8.406;2023-08-21T12:13:51;28.10;99.90
4390;DHT22;2209;48.982;8.406;2023-08-21T12:16:14;28.20;99.90
4390;DHT22;2209;48.982;8.406;2023-08-21T12:18:36;28.20;99.90
4390;DHT22;2209;48.982;8.406;2023-08-21T12:20:58;28.20;99.90
4390;DHT22;2209;48.982;8.406;2023-08-21T12:23:20;28.30;99.90
4390;DHT22;2209;48.982;8.406;2023-08-21T12:25:42;28.40;99.90
4390;DHT22;2209;48.982;8.406;2023-08-21T12:28:05;28.50;99.90
4390;DHT22;2209;48.982;8.406;2023-08-21T12:30:28;28.50;99.90
4390;DHT22;2209;48.982;8.406;2023-08-21T12:32:50;28.50;99.90
4390;DHT22;2209;48.982;8.406;2023-08-21T12:35:13;28.50;99.90
4390;DHT22;2209;48.982;8.406;2023-08-21T12:37:35;28.60;99.90
4390;DHT22;2209;48.982;8.406;2023-08-21T12:39:57;28.60;99.90
4390;DHT22;2209;48.982;8.406;2023-08-21T12:42:19;28.60;99.90
4390;DHT22;2209;48.982;8.406;2023-08-21T12:44:41;28.80;99.90
4390;DHT22;2209;48.982;8.406;2023-08-21T12:47:05;28.90;99.90
4390;DHT22;2209;48.982;8.406;2023-08-21T12:49:27;28.90;99.90
4390;DHT22;2209;48.982;8.406;2023-08-21T12:51:49;29.00;99.90
4390;DHT22;2209;48.982;8.406;2023-08-21T12:54:11;29.00;99.90
4390;DHT22;2209;48.982;8.406;2023-08-21T12:56:33;29.00;99.90
4390;DHT22;2209;48.982;8.406;2023-08-21T12:58:55;29.00;99.90
4390;DHT22;2209;48.982;8.406;2023-08-21T13:01:17;29.00;99.90
4390;DHT22;2209;48.982;8.406;2023-08-21T13:03:44;29.00;99.90
4390;DHT22;2209;48.982;8.406;2023-08-21T13:06:07;29.00;99.90
4390;DHT22;2209;48.982;8.406;2023-08-21T13:08:29;29.10;99.90
4390;DHT22;2209;48.982;8.406;2023-08-21T13:10:51;29.20;99.90
4390;DHT22;2209;48.982;8.406;2023-08-21T13:13:14;29.20;99.90
4390;DHT22;2209;48.982;8.406;2023-08-21T13:15:36;29.20;99.90
4390;DHT22;2209;48.982;8.406;2023-08-21T13:17:58;29.30;99.90
4390;DHT22;2209;48.982;8.406;2023-08-21T13:20:21;29.40;99.90
4390;DHT22;2209;48.982;8.406;2023-08-21T13:22:47;29.50;99.90
4390;DHT22;2209;48.982;8.406;2023-08-21T13:25:09;29.70;99.90
4390;DHT22;2209;48.982;8.406;2023-08-21T13:27:31;29.80;99.90
4390;DHT22;2209;48.982;8.406;2023-08-21T13:29:55;29.80;99.90
4390;DHT22;2209;48.982;8.406;2023-08-21T13:32:17;29.80;99.90
4390;DHT22;2209;48.982;8.406;2023-08-21T13:34:39;29.80;99.90
4390;DHT22;2209;48.982;8.406;2023-08-21T13:37:03;29.80;99.90
4390;DHT22;2209;48.982;8.406;2023-08-21T13:39:25;29.70;99.90
4390;DHT22;2209;48.982;8.406;2023-08-21T13:41:48;29.80;99.90
4390;DHT22;2209;48.982;8.406;2023-08-21T13:44:11;29.80;99.90
4390;DHT22;2209;48.982;8.406;2023-08-21T13:46:33;29.80;99.90
4390;DHT22;2209;48.982;8.406;2023-08-21T13:48:55;29.90;99.90
4390;DHT22;2209;48.982;8.406;2023-08-21T13:51:17;30.00;99.90
4390;DHT22;2209;48.982;8.406;2023-08-21T13:53:40;30.10;99.90
4390;DHT22;2209;48.982;8.406;2023-08-21T13:56:03;30.10;99.90
4390;DHT22;2209;48.982;8.406;2023-08-21T13:58:25;30.20;99.90
4390;DHT22;2209;48.982;8.406;2023-08-21T14:00:47;30.30;99.90
4390;DHT22;2209;48.982;8.406;2023-08-21T14:03:10;30.40;99.90
4390;DHT22;2209;48.982;8.406;2023-08-21T14:05:32;30.60;99.90
4390;DHT22;2209;48.982;8.406;2023-08-21T14:07:54;30.80;98.80
4390;DHT22;2209;48.982;8.406;2023-08-21T14:10:17;30.80;98.00
4390;DHT22;2209;48.982;8.406;2023-08-21T14:12:40;30.90;98.00
4390;DHT22;2209;48.982;8.406;2023-08-21T14:15:02;30.90;98.60
4390;DHT22;2209;48.982;8.406;2023-08-21T14:17:25;30.80;98.80
4390;DHT22;2209;48.982;8.406;2023-08-21T14:19:50;30.80;99.00
4390;DHT22;2209;48.982;8.406;2023-08-21T14:22:12;30.70;98.50
4390;DHT22;2209;48.982;8.406;2023-08-21T14:24:37;30.70;98.70
4390;DHT22;2209;48.982;8.406;2023-08-21T14:27:01;30.70;99.20
4390;DHT22;2209;48.982;8.406;2023-08-21T14:29:23;30.80;98.80
4390;DHT22;2209;48.982;8.406;2023-08-21T14:31:45;30.80;98.10
4390;DHT22;2209;48.982;8.406;2023-08-21T14:34:09;30.90;97.60
4390;DHT22;2209;48.982;8.406;2023-08-21T14:36:31;31.00;96.80
4390;DHT22;2209;48.982;8.406;2023-08-21T14:38:53;31.00;96.50
4390;DHT22;2209;48.982;8.406;2023-08-21T14:41:15;31.10;96.30
4390;DHT22;2209;48.982;8.406;2023-08-21T14:43:38;31.10;96.20
4390;DHT22;2209;48.982;8.406;2023-08-21T14:46:00;31.20;96.50
4390;DHT22;2209;48.982;8.406;2023-08-21T14:48:23;31.20;96.60
4390;DHT22;2209;48.982;8.406;2023-08-21T14:50:45;31.30;96.70
4390;DHT22;2209;48.982;8.406;2023-08-21T14:53:07;31.30;96.50
4390;DHT22;2209;48.982;8.406;2023-08-21T14:55:29;31.40;96.40
4390;DHT22;2209;48.982;8.406;2023-08-21T14:57:51;31.50;96.30
4390;DHT22;2209;48.982;8.406;2023-08-21T15:00:15;31.60;96.40
4390;DHT22;2209;48.982;8.406;2023-08-21T15:02:38;31.70;96.00
4390;DHT22;2209;48.982;8.406;2023-08-21T15:05:02;31.80;96.10
4390;DHT22;2209;48.982;8.406;2023-08-21T15:07:25;31.90;96.00
4390;DHT22;2209;48.982;8.406;2023-08-21T15:09:48;32.00;95.90
4390;DHT22;2209;48.982;8.406;2023-08-21T15:12:11;32.00;95.70
4390;DHT22;2209;48.982;8.406;2023-08-21T15:14:33;32.10;95.30
4390;DHT22;2209;48.982;8.406;2023-08-21T15:16:57;32.10;94.80
4390;DHT22;2209;48.982;8.406;2023-08-21T15:19:19;32.20;94.90
4390;DHT22;2209;48.982;8.406;2023-08-21T15:21:42;32.20;95.10
4390;DHT22;2209;48.982;8.406;2023-08-21T15:24:04;32.20;95.30
4390;DHT22;2209;48.982;8.406;2023-08-21T15:26:27;32.30;95.30
4390;DHT22;2209;48.982;8.406;2023-08-21T15:28:49;32.30;95.50
4390;DHT22;2209;48.982;8.406;2023-08-21T15:31:11;32.40;96.00
4390;DHT22;2209;48.982;8.406;2023-08-21T15:33:35;32.40;96.10